Time;durP1;ratioP1;P1;durP2;ratioP2;P2;SDS_P1;SDS_P2;PMS_P1;PMS_P2;Temp;Humidity;BMP_temperature;BMP_pressure;BME280_temperature;BME280_humidity;BME280_pressure;Samples;Min_cycle;Max_cycle;Signal;HPM_P1;HPM_P2
2023/09/25 00:01:52;;;;;;;;;;;18.10;66.70;;;;;;5097634;28;20007;-69
2023/09/25 00:04:17;;;;;;;;;;;18.00;66.60;;;;;;5097656;28;19972;-69
2023/09/25 00:06:43;;;;;;;;;;;18.00;66.60;;;;;;5097528;28;19958;-68
2023/09/25 00:09:10;;;;;;;;;;;18.00;66.60;;;;;;5115531;28;19920;-69
2023/09/25 00:11:36;;;;;;;;;;;18.10;66.60;;;;;;5097331;28;19990;-68
2023/09/25 00:14:02;;;;;;;;;;;18.00;66.60;;;;;;5097511;28;19967;-68
2023/09/25 00:16:27;;;;;;;;;;;18.00;66.50;;;;;;5115204;28;19998;-69
2023/09/25 00:18:53;;;;;;;;;;;18.00;66.50;;;;;;5096970;28;19928;-69
2023/09/25 00:21:18;;;;;;;;;;;18.00;66.50;;;;;;5131418;27;19982;-70
2023/09/25 00:23:44;;;;;;;;;;;18.00;66.50;;;;;;5115170;28;19920;-69
2023/09/25 00:26:09;;;;;;;;;;;18.00;66.50;;;;;;5130907;27;19923;-68
2023/09/25 00:28:35;;;;;;;;;;;18.00;66.50;;;;;;5097388;28;19924;-69
2023/09/25 00:31:00;;;;;;;;;;;18.00;66.50;;;;;;5130898;27;19919;-68
2023/09/25 00:33:26;;;;;;;;;;;18.00;66.60;;;;;;5115075;28;20002;-69
2023/09/25 00:35:53;;;;;;;;;;;18.20;66.40;;;;;;5096653;28;19989;-69
2023/09/25 00:38:19;;;;;;;;;;;18.70;65.80;;;;;;5096503;28;19965;-68
2023/09/25 00:40:44;;;;;;;;;;;19.10;64.60;;;;;;5114762;28;20011;-69
2023/09/25 00:43:12;;;;;;;;;;;19.70;63.00;;;;;;5115013;28;20286;-68
2023/09/25 00:45:38;;;;;;;;;;;20.40;61.10;;;;;;5114961;28;19920;-69
2023/09/25 00:48:04;;;;;;;;;;;21.20;59.30;;;;;;5114638;28;20385;-69
2023/09/25 00:50:31;;;;;;;;;;;21.90;57.80;;;;;;5114788;28;19984;-69
2023/09/25 00:53:01;;;;;;;;;;;22.50;55.80;;;;;;5096345;28;19959;-69
2023/09/25 00:55:26;;;;;;;;;;;23.00;54.50;;;;;;5096523;28;20006;-69
2023/09/25 00:57:52;;;;;;;;;;;23.50;53.10;;;;;;5114408;28;20427;-69
2023/09/25 01:00:18;;;;;;;;;;;24.00;52.10;;;;;;5114655;28;19920;-69
2023/09/25 01:02:43;;;;;;;;;;;24.40;51.10;;;;;;5096389;28;19920;-69
2023/09/25 01:05:09;;;;;;;;;;;24.70;50.30;;;;;;5130391;27;19986;-69
2023/09/25 01:07:36;;;;;;;;;;;25.00;49.70;;;;;;5096368;28;19965;-69
2023/09/25 01:10:03;;;;;;;;;;;25.10;49.20;;;;;;5095906;28;19919;-69
2023/09/25 01:12:28;;;;;;;;;;;25.20;49.10;;;;;;5096166;28;19919;-69
2023/09/25 01:14:54;;;;;;;;;;;25.10;48.90;;;;;;5130404;27;19927;-69
2023/09/25 01:17:20;;;;;;;;;;;25.10;49.10;;;;;;5095995;28;19924;-69
2023/09/25 01:19:45;;;;;;;;;;;24.90;49.30;;;;;;5096170;28;19964;-69
2023/09/25 01:22:11;;;;;;;;;;;24.70;49.70;;;;;;5096053;28;19920;-69
2023/09/25 01:24:36;;;;;;;;;;;24.50;50.10;;;;;;5095743;28;20462;-69
2023/09/25 01:27:02;;;;;;;;;;;24.20;50.50;;;;;;5095986;28;19927;-69
2023/09/25 01:29:27;;;;;;;;;;;24.00;51.10;;;;;;5095941;28;20267;-69
2023/09/25 01:31:53;;;;;;;;;;;23.60;51.50;;;;;;5095611;28;19919;-69
2023/09/25 01:34:18;;;;;;;;;;;23.40;52.10;;;;;;5095801;28;20080;-68
2023/09/25 01:36:44;;;;;;;;;;;23.10;52.60;;;;;;5095342;28;19920;-69
2023/09/25 01:39:10;;;;;;;;;;;22.90;53.30;;;;;;5095395;28;19981;-68
2023/09/25 01:41:35;;;;;;;;;;;22.60;53.80;;;;;;5113613;28;19927;-69
2023/09/25 01:44:01;;;;;;;;;;;22.40;54.40;;;;;;5095696;28;20263;-69
2023/09/25 01:46:26;;;;;;;;;;;22.20;54.90;;;;;;5095427;28;19920;-68
2023/09/25 01:48:52;;;;;;;;;;;22.00;55.30;;;;;;5095272;28;19924;-69
2023/09/25 01:51:17;;;;;;;;;;;21.80;55.70;;;;;;5095647;28;20006;-69
2023/09/25 01:53:46;;;;;;;;;;;21.70;56.10;;;;;;5095206;28;20332;-69
2023/09/25 01:56:12;;;;;;;;;;;21.70;56.40;;;;;;5095486;28;19927;-69
2023/09/25 01:58:39;;;;;;;;;;;21.60;56.50;;;;;;5113186;28;19924;-69
2023/09/25 02:01:05;;;;;;;;;;;21.50;56.60;;;;;;5095407;28;19968;-69
2023/09/25 02:03:31;;;;;;;;;;;21.50;56.60;;;;;;5113371;28;19919;-69
2023/09/25 02:05:57;;;;;;;;;;;21.60;56.50;;;;;;5095318;28;20060;-69
2023/09/25 02:08:22;;;;;;;;;;;21.60;56.40;;;;;;5094871;28;19958;-69
2023/09/25 02:10:48;;;;;;;;;;;21.60;56.30;;;;;;5094954;28;20425;-68
2023/09/25 02:13:13;;;;;;;;;;;21.70;56.10;;;;;;5094906;28;19920;-68
2023/09/25 02:15:39;;;;;;;;;;;21.70;55.90;;;;;;5095117;28;19959;-68
2023/09/25 02:18:05;;;;;;;;;;;21.80;55.80;;;;;;5094801;28;19976;-69
2023/09/25 02:20:30;;;;;;;;;;;21.90;55.60;;;;;;5095033;28;19927;-69
2023/09/25 02:22:55;;;;;;;;;;;22.00;55.40;;;;;;5095044;28;19920;-69
2023/09/25 02:25:21;;;;;;;;;;;22.10;55.20;;;;;;5112968;28;20328;-68
2023/09/25 02:27:46;;;;;;;;;;;22.10;55.00;;;;;;5129055;27;19927;-68
2023/09/25 02:30:12;;;;;;;;;;;22.20;55.10;;;;;;5113111;28;20370;-68
2023/09/25 02:32:38;;;;;;;;;;;22.30;54.60;;;;;;5094946;28;19951;-69
2023/09/25 02:35:04;;;;;;;;;;;22.30;54.40;;;;;;5128618;27;19919;-69
2023/09/25 02:37:30;;;;;;;;;;;22.40;54.20;;;;;;5112657;28;19927;-68
2023/09/25 02:39:56;;;;;;;;;;;22.50;54.10;;;;;;5112798;28;19924;-69
2023/09/25 02:42:22;;;;;;;;;;;22.50;54.00;;;;;;5094863;28;19920;-69
2023/09/25 02:44:47;;;;;;;;;;;22.50;53.90;;;;;;5094463;28;19920;-69
2023/09/25 02:47:12;;;;;;;;;;;22.40;53.90;;;;;;5094780;28;19971;-69
2023/09/25 02:49:38;;;;;;;;;;;22.40;53.90;;;;;;5128653;28;20007;-69
2023/09/25 02:52:03;;;;;;;;;;;22.40;54.00;;;;;;5112780;28;19920;-69
2023/09/25 02:54:29;;;;;;;;;;;22.40;54.20;;;;;;5112818;28;19966;-69
2023/09/25 02:56:54;;;;;;;;;;;22.30;54.20;;;;;;5094305;28;19926;-69
2023/09/25 02:59:20;;;;;;;;;;;22.30;54.30;;;;;;5094242;28;19943;-69
2023/09/25 03:01:45;;;;;;;;;;;22.20;55.00;;;;;;5112570;28;20022;-69
2023/09/25 03:04:11;;;;;;;;;;;22.20;54.50;;;;;;5112738;28;19920;-69
2023/09/25 03:06:36;;;;;;;;;;;22.10;54.50;;;;;;5128439;28;19920;-69
2023/09/25 03:09:02;;;;;;;;;;;22.10;54.60;;;;;;5112630;28;19920;-69
2023/09/25 03:11:30;;;;;;;;;;;22.00;54.60;;;;;;5094462;28;19919;-70
2023/09/25 03:13:55;;;;;;;;;;;22.00;54.70;;;;;;5094586;28;20286;-69
2023/09/25 03:16:21;;;;;;;;;;;22.00;54.90;;;;;;5112299;28;20002;-70
2023/09/25 03:18:46;;;;;;;;;;;21.90;54.90;;;;;;5112373;28;19927;-69
2023/09/25 03:21:13;;;;;;;;;;;21.80;55.00;;;;;;5115315;28;19932;-69
2023/09/25 03:23:39;;;;;;;;;;;21.80;55.10;;;;;;5098423;28;19973;-69
2023/09/25 03:26:13;;;;;;;;;;;21.80;55.10;;;;;;5116378;28;19920;-69
2023/09/25 03:28:38;;;;;;;;;;;21.80;55.10;;;;;;5116289;28;19927;-69
2023/09/25 03:31:04;;;;;;;;;;;21.80;55.20;;;;;;5098262;28;19920;-69
2023/09/25 03:33:29;;;;;;;;;;;21.80;55.20;;;;;;5098178;28;19931;-69
2023/09/25 03:35:55;;;;;;;;;;;21.80;55.20;;;;;;5097847;28;20374;-69
2023/09/25 03:38:20;;;;;;;;;;;21.80;55.10;;;;;;5097576;28;19924;-68
2023/09/25 03:40:45;;;;;;;;;;;21.80;55.10;;;;;;5098056;28;19927;-68
2023/09/25 03:43:11;;;;;;;;;;;21.80;55.00;;;;;;5097646;28;20381;-68
2023/09/25 03:45:36;;;;;;;;;;;21.80;55.00;;;;;;5097894;28;20015;-69
2023/09/25 03:48:02;;;;;;;;;;;21.80;55.00;;;;;;5097869;28;19927;-68
2023/09/25 03:50:28;;;;;;;;;;;21.80;54.90;;;;;;5116312;28;19920;-69
2023/09/25 03:52:57;;;;;;;;;;;21.80;54.90;;;;;;5115859;28;19927;-69
2023/09/25 03:55:23;;;;;;;;;;;21.80;54.90;;;;;;5097844;28;20279;-68
2023/09/25 03:57:49;;;;;;;;;;;21.80;54.80;;;;;;5097698;28;20072;-68
2023/09/25 04:00:15;;;;;;;;;;;21.90;54.90;;;;;;5097687;28;19927;-69
2023/09/25 04:02:40;;;;;;;;;;;21.90;55.50;;;;;;5097325;28;19966;-68
2023/09/25 04:05:06;;;;;;;;;;;21.80;54.70;;;;;;5097325;28;19920;-68
2023/09/25 04:07:31;;;;;;;;;;;21.80;54.70;;;;;;5097601;28;19920;-69
2023/09/25 04:09:56;;;;;;;;;;;21.90;54.70;;;;;;5115438;28;19927;-69
2023/09/25 04:12:22;;;;;;;;;;;21.90;54.70;;;;;;5097232;28;19920;-69
2023/09/25 04:14:48;;;;;;;;;;;21.90;54.70;;;;;;5097376;28;19978;-69
2023/09/25 04:17:15;;;;;;;;;;;21.90;54.60;;;;;;5096978;28;19927;-69
2023/09/25 04:19:40;;;;;;;;;;;21.90;54.60;;;;;;5096947;28;19969;-69
2023/09/25 04:22:06;;;;;;;;;;;21.90;54.60;;;;;;5097294;28;19924;-69
2023/09/25 04:24:35;;;;;;;;;;;21.90;54.60;;;;;;5096793;28;20393;-68
2023/09/25 04:27:02;;;;;;;;;;;22.00;54.60;;;;;;5097200;28;19919;-69
2023/09/25 04:29:27;;;;;;;;;;;22.00;54.60;;;;;;5096804;28;19924;-69
2023/09/25 04:31:53;;;;;;;;;;;21.90;54.50;;;;;;5114547;28;20325;-69
2023/09/25 04:34:19;;;;;;;;;;;21.90;54.40;;;;;;5096737;28;20125;-69
2023/09/25 04:36:46;;;;;;;;;;;21.90;54.40;;;;;;5114768;28;19927;-68
2023/09/25 04:39:11;;;;;;;;;;;21.90;54.40;;;;;;5096580;28;20028;-68
2023/09/25 04:41:37;;;;;;;;;;;21.90;54.40;;;;;;5096918;28;20396;-69
2023/09/25 04:44:04;;;;;;;;;;;21.90;54.40;;;;;;5114733;28;20272;-68
2023/09/25 04:46:30;;;;;;;;;;;21.90;54.40;;;;;;5096737;28;19924;-68
2023/09/25 04:48:55;;;;;;;;;;;21.90;54.40;;;;;;5096413;28;19920;-68
2023/09/25 04:51:21;;;;;;;;;;;21.90;54.40;;;;;;5114696;28;20264;-69
2023/09/25 04:53:47;;;;;;;;;;;21.90;54.40;;;;;;5096718;28;19919;-69
2023/09/25 04:56:21;;;;;;;;;;;21.90;54.40;;;;;;5096236;28;19920;-69
2023/09/25 04:58:46;;;;;;;;;;;21.90;54.40;;;;;;5096310;28;19923;-69
2023/09/25 05:01:12;;;;;;;;;;;21.90;54.40;;;;;;5096131;28;20042;-68
2023/09/25 05:03:38;;;;;;;;;;;21.90;54.40;;;;;;5096531;28;19924;-68
2023/09/25 05:06:03;;;;;;;;;;;21.90;54.30;;;;;;5096434;28;19955;-69
2023/09/25 05:08:29;;;;;;;;;;;21.90;54.30;;;;;;5096438;28;20435;-69
2023/09/25 05:10:57;;;;;;;;;;;21.90;54.30;;;;;;5130128;27;20371;-69
2023/09/25 05:13:22;;;;;;;;;;;21.90;54.30;;;;;;5096353;28;19920;-68
2023/09/25 05:15:48;;;;;;;;;;;21.90;54.30;;;;;;5114130;28;20416;-69
2023/09/25 05:18:13;;;;;;;;;;;21.90;54.30;;;;;;5095917;28;20002;-69
2023/09/25 05:20:39;;;;;;;;;;;21.90;54.30;;;;;;5095854;28;19966;-69
2023/09/25 05:23:04;;;;;;;;;;;21.90;54.30;;;;;;5096135;28;19974;-69
2023/09/25 05:25:30;;;;;;;;;;;21.90;54.30;;;;;;5113988;28;20010;-69
2023/09/25 05:27:57;;;;;;;;;;;21.80;54.30;;;;;;5096117;28;19920;-69
2023/09/25 05:30:22;;;;;;;;;;;21.80;54.40;;;;;;5096016;28;19926;-73
2023/09/25 05:32:48;;;;;;;;;;;21.80;54.50;;;;;;5094685;28;20372;-69
2023/09/25 05:35:14;;;;;;;;;;;21.80;54.40;;;;;;5095203;28;20010;-69
2023/09/25 05:37:41;;;;;;;;;;;21.80;54.40;;;;;;5095285;28;19993;-68
2023/09/25 05:40:10;;;;;;;;;;;21.80;54.30;;;;;;5095474;28;19920;-68
2023/09/25 05:42:36;;;;;;;;;;;21.80;54.10;;;;;;5092400;28;19951;-68
2023/09/25 05:45:01;;;;;;;;;;;21.70;54.30;;;;;;5093566;28;19923;-68
2023/09/25 05:47:27;;;;;;;;;;;21.60;54.20;;;;;;5093412;28;19945;-68
2023/09/25 05:49:52;;;;;;;;;;;21.50;54.10;;;;;;5093237;28;20371;-68
2023/09/25 05:52:17;;;;;;;;;;;21.60;54.20;;;;;;5093031;28;20375;-68
2023/09/25 05:54:43;;;;;;;;;;;21.60;54.10;;;;;;5093203;28;19920;-68
2023/09/25 05:57:09;;;;;;;;;;;21.50;53.90;;;;;;5110906;28;20152;-68
2023/09/25 05:59:35;;;;;;;;;;;21.50;53.90;;;;;;5109063;28;19924;-67
2023/09/25 06:02:01;;;;;;;;;;;21.50;53.80;;;;;;5091732;28;20045;-67
2023/09/25 06:04:27;;;;;;;;;;;21.50;53.70;;;;;;5102592;28;20118;-68
2023/09/25 06:06:52;;;;;;;;;;;21.50;53.70;;;;;;5085457;28;19930;-68
2023/09/25 06:09:19;;;;;;;;;;;21.50;53.80;;;;;;5083323;28;20247;-68
2023/09/25 06:11:44;;;;;;;;;;;21.60;53.80;;;;;;5089327;28;19920;-68
2023/09/25 06:14:10;;;;;;;;;;;21.60;54.20;;;;;;5087307;28;20656;-68
2023/09/25 06:16:36;;;;;;;;;;;21.70;53.70;;;;;;5090274;28;19984;-69
2023/09/25 06:19:03;;;;;;;;;;;21.70;53.60;;;;;;5084956;28;20371;-68
2023/09/25 06:21:29;;;;;;;;;;;21.80;53.50;;;;;;5082984;28;19924;-68
2023/09/25 06:23:55;;;;;;;;;;;21.80;53.40;;;;;;5076155;28;20430;-68
2023/09/25 06:26:20;;;;;;;;;;;21.90;53.30;;;;;;5105954;27;19920;-68
2023/09/25 06:28:46;;;;;;;;;;;21.90;53.30;;;;;;5095818;28;20252;-68
2023/09/25 06:31:13;;;;;;;;;;;21.90;53.40;;;;;;5075597;28;20493;-69
2023/09/25 06:33:38;;;;;;;;;;;21.90;53.30;;;;;;5076606;28;19931;-69
2023/09/25 06:36:04;;;;;;;;;;;21.90;53.30;;;;;;5070672;28;19928;-69
2023/09/25 06:38:29;;;;;;;;;;;21.90;53.30;;;;;;5078082;28;20419;-68
2023/09/25 06:40:55;;;;;;;;;;;21.90;53.30;;;;;;5062136;28;20704;-68
2023/09/25 06:43:21;;;;;;;;;;;21.90;53.30;;;;;;5065526;28;19924;-68
2023/09/25 06:45:47;;;;;;;;;;;21.90;53.30;;;;;;5087750;28;20384;-70
2023/09/25 06:48:12;;;;;;;;;;;21.90;53.30;;;;;;5109739;28;19931;-69
2023/09/25 06:50:38;;;;;;;;;;;21.90;53.40;;;;;;5073393;28;19971;-70
2023/09/25 06:53:03;;;;;;;;;;;21.90;53.40;;;;;;5090432;28;19930;-69
2023/09/25 06:55:29;;;;;;;;;;;21.80;53.40;;;;;;5096827;28;20570;-68
2023/09/25 06:57:54;;;;;;;;;;;21.70;53.40;;;;;;5077379;28;20383;-68
2023/09/25 07:00:20;;;;;;;;;;;21.70;53.60;;;;;;5080337;28;19984;-68
2023/09/25 07:02:46;;;;;;;;;;;21.70;53.80;;;;;;5077950;28;19943;-69
2023/09/25 07:05:11;;;;;;;;;;;21.70;53.80;;;;;;5079622;28;19959;-68
2023/09/25 07:07:37;;;;;;;;;;;21.70;53.80;;;;;;5076197;28;19974;-72
2023/09/25 07:10:05;;;;;;;;;;;21.70;53.80;;;;;;5077065;28;21050;-69
2023/09/25 07:12:30;;;;;;;;;;;21.70;53.70;;;;;;5080046;28;19920;-70
2023/09/25 07:14:56;;;;;;;;;;;21.70;53.70;;;;;;5094977;28;19927;-68
2023/09/25 07:17:23;;;;;;;;;;;21.70;53.80;;;;;;5072178;28;19924;-70
2023/09/25 07:19:49;;;;;;;;;;;21.70;53.80;;;;;;5104395;27;19953;-71
2023/09/25 07:22:14;;;;;;;;;;;21.70;53.80;;;;;;5073852;28;20529;-71
2023/09/25 07:24:41;;;;;;;;;;;21.60;54.60;;;;;;5095836;28;20026;-71
2023/09/25 07:27:10;;;;;;;;;;;21.60;54.00;;;;;;5093697;28;19924;-71
2023/09/25 07:29:36;;;;;;;;;;;21.60;54.10;;;;;;5075817;28;19935;-72
2023/09/25 07:32:05;;;;;;;;;;;21.60;54.20;;;;;;5076592;28;20035;-71
2023/09/25 07:34:30;;;;;;;;;;;21.50;54.10;;;;;;5075301;28;19963;-71
2023/09/25 07:36:56;;;;;;;;;;;21.50;54.40;;;;;;5092485;28;20402;-71
2023/09/25 07:39:22;;;;;;;;;;;21.50;54.30;;;;;;5073257;28;19932;-71
2023/09/25 07:41:48;;;;;;;;;;;21.50;54.50;;;;;;5075453;28;19923;-73
2023/09/25 07:44:16;;;;;;;;;;;21.40;54.50;;;;;;5111762;27;19924;-71
2023/09/25 07:46:41;;;;;;;;;;;21.40;54.70;;;;;;5074060;28;20345;-68
2023/09/25 07:49:08;;;;;;;;;;;21.30;54.70;;;;;;5095442;28;19976;-70
2023/09/25 07:51:34;;;;;;;;;;;21.30;54.80;;;;;;5075503;28;19924;-71
2023/09/25 07:53:59;;;;;;;;;;;21.30;54.90;;;;;;5077509;28;19928;-71
2023/09/25 07:56:25;;;;;;;;;;;21.30;55.00;;;;;;5079673;28;19935;-74
2023/09/25 07:58:50;;;;;;;;;;;21.20;55.00;;;;;;5075278;28;19928;-73
2023/09/25 08:01:16;;;;;;;;;;;21.20;55.10;;;;;;5075867;28;19919;-71
2023/09/25 08:03:43;;;;;;;;;;;21.20;55.20;;;;;;5078813;28;20065;-72
2023/09/25 08:06:11;;;;;;;;;;;21.10;55.40;;;;;;5108746;27;20105;-73
2023/09/25 08:08:37;;;;;;;;;;;21.10;55.60;;;;;;5073277;28;20011;-73
2023/09/25 08:11:02;;;;;;;;;;;21.10;55.70;;;;;;5074160;28;19988;-72
2023/09/25 08:13:28;;;;;;;;;;;21.00;55.80;;;;;;5071198;28;20466;-75
2023/09/25 08:15:53;;;;;;;;;;;21.00;56.00;;;;;;5109335;27;20061;-75
2023/09/25 08:18:19;;;;;;;;;;;21.00;56.20;;;;;;5076172;28;19939;-74
2023/09/25 08:20:45;;;;;;;;;;;20.90;56.40;;;;;;5075978;28;19930;-73
2023/09/25 08:23:11;;;;;;;;;;;20.80;56.60;;;;;;5074279;28;19919;-74
2023/09/25 08:25:36;;;;;;;;;;;20.80;56.80;;;;;;5070456;28;19927;-74
2023/09/25 08:28:02;;;;;;;;;;;20.70;57.00;;;;;;5094685;28;19967;-73
2023/09/25 08:30:27;;;;;;;;;;;20.70;57.20;;;;;;5074008;28;20022;-74
2023/09/25 08:32:53;;;;;;;;;;;20.60;57.40;;;;;;5081386;28;19924;-74
2023/09/25 08:35:19;;;;;;;;;;;20.60;57.60;;;;;;5077236;28;19930;-74
2023/09/25 08:37:44;;;;;;;;;;;20.50;57.80;;;;;;5077266;28;20669;-73
2023/09/25 08:40:10;;;;;;;;;;;20.50;57.90;;;;;;5095795;28;19936;-73
2023/09/25 08:42:37;;;;;;;;;;;20.40;58.00;;;;;;5094328;28;19931;-73
2023/09/25 08:45:03;;;;;;;;;;;20.40;58.20;;;;;;5097537;28;19919;-73
2023/09/25 08:47:30;;;;;;;;;;;20.30;58.30;;;;;;5109695;27;19968;-71
2023/09/25 08:49:56;;;;;;;;;;;20.30;58.50;;;;;;5079612;28;20406;-70
2023/09/25 08:52:22;;;;;;;;;;;20.20;58.50;;;;;;5073045;28;19923;-70
2023/09/25 08:54:49;;;;;;;;;;;20.20;58.80;;;;;;5081615;28;20445;-71
2023/09/25 08:57:15;;;;;;;;;;;20.10;58.80;;;;;;5080553;28;19920;-72
2023/09/25 08:59:44;;;;;;;;;;;20.10;58.90;;;;;;5092665;28;19924;-75
2023/09/25 09:02:09;;;;;;;;;;;20.10;59.10;;;;;;5074603;28;19928;-72
2023/09/25 09:04:35;;;;;;;;;;;20.10;59.20;;;;;;5075341;28;19920;-72
2023/09/25 09:07:01;;;;;;;;;;;20.00;59.30;;;;;;5076207;28;19966;-74
2023/09/25 09:09:26;;;;;;;;;;;20.00;59.40;;;;;;5079263;28;19920;-71
2023/09/25 09:11:52;;;;;;;;;;;20.00;59.70;;;;;;5074890;28;19935;-76
2023/09/25 09:14:37;;;;;;;;;;;20.00;59.80;;;;;;5073993;28;20427;-74
2023/09/25 09:17:04;;;;;;;;;;;20.00;59.80;;;;;;5071795;28;21442;-78
2023/09/25 09:19:33;;;;;;;;;;;19.90;59.90;;;;;;5077646;28;20010;-81
2023/09/25 09:22:01;;;;;;;;;;;20.00;60.00;;;;;;5105720;27;19935;-70
2023/09/25 09:24:28;;;;;;;;;;;20.00;60.30;;;;;;5080778;28;19924;-73
2023/09/25 09:26:53;;;;;;;;;;;20.00;60.30;;;;;;5077089;28;20017;-70
2023/09/25 09:29:19;;;;;;;;;;;20.00;60.40;;;;;;5075916;28;20035;-71
2023/09/25 09:31:45;;;;;;;;;;;20.00;60.50;;;;;;5090959;28;19970;-71
2023/09/25 09:34:10;;;;;;;;;;;20.10;60.60;;;;;;5077980;28;20334;-70
2023/09/25 09:36:36;;;;;;;;;;;20.10;60.60;;;;;;5075220;28;19920;-73
2023/09/25 09:39:03;;;;;;;;;;;20.10;60.60;;;;;;5105034;27;20563;-73
2023/09/25 09:41:29;;;;;;;;;;;20.10;60.60;;;;;;5091415;28;19924;-75
2023/09/25 09:43:54;;;;;;;;;;;20.10;60.40;;;;;;5071198;28;19920;-73
2023/09/25 09:46:22;;;;;;;;;;;20.10;60.40;;;;;;5074808;28;19927;-73
2023/09/25 09:48:49;;;;;;;;;;;20.10;61.20;;;;;;5076680;28;20290;-71
2023/09/25 09:51:16;;;;;;;;;;;20.10;60.40;;;;;;5074714;28;19924;-73
2023/09/25 09:53:42;;;;;;;;;;;20.10;60.40;;;;;;5074941;28;19924;-72
2023/09/25 09:56:08;;;;;;;;;;;20.10;60.40;;;;;;5077111;28;20418;-70
2023/09/25 09:58:36;;;;;;;;;;;20.10;60.40;;;;;;5094574;28;19932;-72
2023/09/25 10:01:02;;;;;;;;;;;20.10;60.40;;;;;;5075165;28;19934;-72
2023/09/25 10:03:29;;;;;;;;;;;20.10;60.40;;;;;;5093769;28;19920;-72
2023/09/25 10:05:56;;;;;;;;;;;20.10;60.40;;;;;;5075696;28;19966;-73
2023/09/25 10:08:21;;;;;;;;;;;20.10;60.40;;;;;;5081944;28;19927;-72
2023/09/25 10:10:48;;;;;;;;;;;20.10;60.40;;;;;;5073361;28;19920;-73
2023/09/25 10:13:17;;;;;;;;;;;20.10;60.40;;;;;;5108520;27;20397;-72
2023/09/25 10:16:00;;;;;;;;;;;20.10;60.50;;;;;;5080209;28;19994;-73
2023/09/25 10:18:26;;;;;;;;;;;20.10;60.50;;;;;;5076045;28;19931;-76
2023/09/25 10:20:59;;;;;;;;;;;20.10;60.40;;;;;;5075779;28;19927;-73
2023/09/25 10:23:25;;;;;;;;;;;20.10;60.40;;;;;;5084525;28;19920;-73
2023/09/25 10:25:57;;;;;;;;;;;20.10;60.40;;;;;;5083202;28;19920;-73
2023/09/25 10:28:25;;;;;;;;;;;20.20;60.50;;;;;;5097136;27;20417;-75
2023/09/25 10:30:51;;;;;;;;;;;20.10;60.30;;;;;;5083609;28;20215;-72
2023/09/25 10:33:18;;;;;;;;;;;20.10;60.30;;;;;;5071148;28;19926;-72
2023/09/25 10:35:47;;;;;;;;;;;20.10;60.30;;;;;;5073020;28;19955;-73
2023/09/25 10:40:55;;;;;;;;;;;20.10;60.20;;;;;;5090881;27;19942;-72
2023/09/25 10:43:22;;;;;;;;;;;20.10;60.20;;;;;;5094968;28;19956;-75
2023/09/25 10:45:48;;;;;;;;;;;20.10;60.20;;;;;;5083214;28;20013;-73
2023/09/25 10:48:14;;;;;;;;;;;20.10;60.50;;;;;;5075765;28;20653;-68
2023/09/25 10:50:40;;;;;;;;;;;20.10;60.80;;;;;;5087764;28;19934;-67
2023/09/25 10:53:07;;;;;;;;;;;20.10;61.10;;;;;;5075454;28;19929;-67
2023/09/25 10:55:33;;;;;;;;;;;20.10;61.30;;;;;;5082141;28;19928;-68
2023/09/25 10:58:02;;;;;;;;;;;20.20;61.70;;;;;;5083583;28;19924;-66
2023/09/25 11:00:28;;;;;;;;;;;20.20;61.70;;;;;;5092544;28;20030;-67
2023/09/25 11:02:54;;;;;;;;;;;20.20;61.90;;;;;;5082019;28;20011;-67
2023/09/25 11:05:21;;;;;;;;;;;20.20;61.90;;;;;;5083389;28;20469;-69
2023/09/25 11:07:46;;;;;;;;;;;20.20;62.20;;;;;;5085204;28;19950;-66
2023/09/25 11:10:13;;;;;;;;;;;20.20;62.30;;;;;;5085863;28;19924;-70
2023/09/25 11:12:39;;;;;;;;;;;20.30;62.30;;;;;;5091658;28;19931;-68
2023/09/25 11:15:09;;;;;;;;;;;20.30;62.40;;;;;;5086978;28;20028;-67
2023/09/25 11:17:35;;;;;;;;;;;20.30;62.40;;;;;;5087008;28;19920;-69
2023/09/25 11:20:06;;;;;;;;;;;20.30;62.80;;;;;;5085983;28;19928;-73
2023/09/25 11:22:36;;;;;;;;;;;20.30;62.70;;;;;;5090309;28;19970;-71
2023/09/25 11:25:04;;;;;;;;;;;20.30;62.50;;;;;;5088444;28;20493;-72
2023/09/25 11:27:29;;;;;;;;;;;20.30;62.40;;;;;;5087119;28;19920;-71
2023/09/25 11:29:55;;;;;;;;;;;20.30;62.40;;;;;;5088542;28;19931;-70
2023/09/25 11:32:21;;;;;;;;;;;20.30;62.30;;;;;;5090412;28;19935;-70
2023/09/25 11:34:47;;;;;;;;;;;20.40;62.30;;;;;;5088859;28;19921;-70
2023/09/25 11:37:20;;;;;;;;;;;20.40;63.00;;;;;;5134797;27;20360;-72
2023/09/25 11:39:46;;;;;;;;;;;20.40;62.20;;;;;;5073178;28;20363;-71
2023/09/25 11:42:11;;;;;;;;;;;20.40;62.20;;;;;;5088659;28;19920;-71
2023/09/25 11:44:37;;;;;;;;;;;20.40;62.10;;;;;;5077349;28;19928;-71
2023/09/25 11:47:03;;;;;;;;;;;20.30;62.00;;;;;;5099741;28;19920;-71
2023/09/25 11:49:29;;;;;;;;;;;20.40;62.10;;;;;;5097780;28;20346;-71
2023/09/25 11:51:54;;;;;;;;;;;20.40;62.10;;;;;;5082274;28;19920;-72
2023/09/25 11:54:20;;;;;;;;;;;20.30;62.00;;;;;;5074146;28;19928;-69
2023/09/25 11:56:45;;;;;;;;;;;20.40;62.10;;;;;;5069537;28;19975;-70
2023/09/25 11:59:14;;;;;;;;;;;20.40;62.10;;;;;;5071813;28;19928;-69
2023/09/25 12:01:41;;;;;;;;;;;20.40;62.20;;;;;;5077398;28;19931;-70
2023/09/25 12:04:08;;;;;;;;;;;20.40;62.50;;;;;;5074052;28;19924;-69
2023/09/25 12:06:34;;;;;;;;;;;20.30;62.40;;;;;;5078071;28;19931;-76
2023/09/25 12:09:10;;;;;;;;;;;20.40;62.50;;;;;;5077336;28;19993;-69
2023/09/25 12:11:36;;;;;;;;;;;20.40;62.80;;;;;;5080116;28;19967;-70
2023/09/25 12:14:01;;;;;;;;;;;20.40;62.60;;;;;;5068938;28;20037;-74
2023/09/25 12:16:27;;;;;;;;;;;20.40;62.90;;;;;;5073374;28;19921;-71
2023/09/25 12:18:56;;;;;;;;;;;20.50;63.10;;;;;;5082714;28;20416;-71
2023/09/25 12:21:21;;;;;;;;;;;20.50;63.00;;;;;;5080377;28;20297;-69
2023/09/25 12:23:47;;;;;;;;;;;20.50;63.70;;;;;;5075248;28;19924;-70
2023/09/25 12:26:12;;;;;;;;;;;20.50;63.00;;;;;;5081980;28;20448;-69
2023/09/25 12:28:38;;;;;;;;;;;20.50;62.90;;;;;;5078475;28;19924;-69
2023/09/25 12:31:03;;;;;;;;;;;20.50;63.60;;;;;;5071154;28;19924;-71
2023/09/25 12:33:30;;;;;;;;;;;20.50;62.80;;;;;;5071828;28;19984;-74
2023/09/25 12:35:55;;;;;;;;;;;20.50;63.00;;;;;;5075554;28;19948;-71
2023/09/25 12:38:21;;;;;;;;;;;20.50;63.10;;;;;;5076436;28;20419;-71
2023/09/25 12:40:46;;;;;;;;;;;20.50;63.40;;;;;;5073613;28;19936;-73
2023/09/25 12:43:12;;;;;;;;;;;20.50;63.40;;;;;;5074325;28;19973;-76
2023/09/25 12:45:38;;;;;;;;;;;20.60;63.80;;;;;;5078698;28;20646;-71
2023/09/25 12:48:04;;;;;;;;;;;20.60;64.40;;;;;;5071568;28;19932;-70
2023/09/25 12:50:29;;;;;;;;;;;20.60;64.80;;;;;;5103800;27;19920;-71
2023/09/25 12:52:55;;;;;;;;;;;20.60;64.80;;;;;;5070056;28;19943;-72
2023/09/25 12:55:20;;;;;;;;;;;20.50;64.90;;;;;;5074263;28;20347;-71
2023/09/25 12:57:48;;;;;;;;;;;20.50;64.80;;;;;;5077278;28;19939;-69
2023/09/25 13:00:13;;;;;;;;;;;20.50;64.90;;;;;;5082736;27;19952;-71
2023/09/25 13:02:39;;;;;;;;;;;20.50;65.10;;;;;;5060981;28;19964;-72
2023/09/25 13:05:05;;;;;;;;;;;20.50;65.20;;;;;;5072780;28;19927;-73
2023/09/25 13:07:30;;;;;;;;;;;20.60;65.50;;;;;;5074428;28;19928;-69
2023/09/25 13:09:56;;;;;;;;;;;20.60;65.50;;;;;;5076220;28;20053;-73
2023/09/25 13:12:21;;;;;;;;;;;20.60;65.60;;;;;;5078725;28;19967;-71
2023/09/25 13:14:46;;;;;;;;;;;20.60;65.20;;;;;;5073952;28;20042;-67
2023/09/25 13:17:12;;;;;;;;;;;20.60;64.70;;;;;;5071046;28;19921;-69
2023/09/25 13:19:41;;;;;;;;;;;20.70;64.70;;;;;;5079146;28;19924;-70
2023/09/25 13:22:08;;;;;;;;;;;20.70;64.40;;;;;;5078724;28;20027;-69
2023/09/25 13:24:33;;;;;;;;;;;20.70;64.50;;;;;;5074856;28;19974;-70
2023/09/25 13:26:59;;;;;;;;;;;20.70;64.30;;;;;;5078989;28;19920;-70
2023/09/25 13:29:24;;;;;;;;;;;20.70;64.00;;;;;;5088120;28;19927;-71
2023/09/25 13:31:50;;;;;;;;;;;20.70;63.90;;;;;;5087942;28;20290;-72
2023/09/25 13:34:15;;;;;;;;;;;20.70;63.60;;;;;;5088608;28;19931;-70
2023/09/25 13:36:41;;;;;;;;;;;20.60;63.50;;;;;;5088188;28;19945;-74
2023/09/25 13:39:06;;;;;;;;;;;20.70;63.40;;;;;;5085581;28;19935;-70
2023/09/25 13:41:32;;;;;;;;;;;20.60;63.30;;;;;;5088054;28;20371;-70
2023/09/25 13:43:57;;;;;;;;;;;20.60;63.20;;;;;;5108433;27;20003;-70
2023/09/25 13:46:24;;;;;;;;;;;20.60;63.20;;;;;;5082753;28;19921;-75
2023/09/25 13:48:49;;;;;;;;;;;20.60;63.30;;;;;;5072101;28;20364;-71
2023/09/25 13:51:15;;;;;;;;;;;20.60;63.40;;;;;;5087526;28;20068;-72
2023/09/25 13:53:41;;;;;;;;;;;20.60;63.40;;;;;;5087840;28;20443;-72
2023/09/25 13:56:06;;;;;;;;;;;20.60;63.30;;;;;;5095189;28;19923;-72
2023/09/25 13:58:32;;;;;;;;;;;20.60;63.40;;;;;;5077604;28;19921;-72
2023/09/25 14:00:59;;;;;;;;;;;20.50;63.50;;;;;;5080754;28;19920;-72
2023/09/25 14:03:25;;;;;;;;;;;20.50;63.70;;;;;;5087655;28;19970;-72
2023/09/25 14:05:50;;;;;;;;;;;20.40;63.70;;;;;;5087236;28;20546;-72
2023/09/25 14:08:16;;;;;;;;;;;20.40;63.80;;;;;;5086069;28;19963;-72
2023/09/25 14:10:42;;;;;;;;;;;20.50;64.00;;;;;;5086652;28;19930;-73
2023/09/25 14:13:08;;;;;;;;;;;20.30;64.00;;;;;;5088682;28;19927;-73